createdAt,value
2023-04-30T00:00:11.819Z,7.87
2023-04-30T00:01:11.803Z,7.86
2023-04-30T00:02:11.831Z,7.85
2023-04-30T00:03:11.847Z,7.85
2023-04-30T00:04:11.769Z,7.87
2023-04-30T00:05:11.737Z,7.83
2023-04-30T00:06:11.768Z,7.80
2023-04-30T00:07:11.696Z,7.86
2023-04-30T00:08:11.676Z,7.85
2023-04-30T00:09:11.661Z,7.85
2023-04-30T00:10:11.642Z,7.85
2023-04-30T00:11:11.630Z,7.80
2023-04-30T00:12:11.651Z,7.83
2023-04-30T00:13:11.661Z,7.85
2023-04-30T00:14:11.576Z,7.86
2023-04-30T00:15:11.561Z,7.83
2023-04-30T00:16:11.583Z,7.85
2023-04-30T00:17:11.527Z,7.79
2023-04-30T00:18:11.573Z,7.77
2023-04-30T00:19:11.518Z,7.79
2023-04-30T00:20:11.471Z,7.79
2023-04-30T00:21:11.458Z,7.69
2023-04-30T00:22:11.436Z,7.68
2023-04-30T00:23:11.425Z,7.69
2023-04-30T00:24:11.409Z,7.67
2023-04-30T00:25:11.391Z,7.71
2023-04-30T00:26:11.368Z,7.57
2023-04-30T00:27:11.352Z,7.58
2023-04-30T00:28:11.373Z,7.58
2023-04-30T00:29:11.316Z,7.48
2023-04-30T00:30:11.308Z,7.50
2023-04-30T00:31:11.289Z,7.43
2023-04-30T00:32:11.321Z,7.60
2023-04-30T00:33:11.313Z,7.46
2023-04-30T00:34:11.239Z,7.53
2023-04-30T00:35:11.249Z,7.60
2023-04-30T00:36:11.219Z,7.61
2023-04-30T00:37:11.175Z,7.49
2023-04-30T00:38:11.167Z,7.55
2023-04-30T00:39:11.147Z,7.46
2023-04-30T00:40:11.132Z,7.46
2023-04-30T00:41:11.173Z,7.45
2023-04-30T00:42:11.097Z,7.45
2023-04-30T00:43:11.070Z,7.58
2023-04-30T00:44:11.058Z,7.48
2023-04-30T00:45:11.038Z,7.49
2023-04-30T00:46:11.060Z,7.45
2023-04-30T00:47:11.015Z,7.49
2023-04-30T00:48:10.983Z,7.45
2023-04-30T00:49:10.968Z,7.46
2023-04-30T00:50:10.958Z,7.50
2023-04-30T00:51:10.935Z,7.45
2023-04-30T00:52:10.970Z,7.42
2023-04-30T00:53:10.896Z,7.46
2023-04-30T00:54:10.889Z,7.34
2023-04-30T00:55:10.866Z,7.32
2023-04-30T00:56:10.850Z,7.25
2023-04-30T00:57:10.827Z,7.27
2023-04-30T00:58:10.854Z,7.25
2023-04-30T00:59:10.810Z,7.28
2023-04-30T01:00:10.778Z,7.25
2023-04-30T01:01:10.809Z,7.28
2023-04-30T01:02:10.768Z,7.28
2023-04-30T01:03:10.809Z,7.27
2023-04-30T01:04:10.736Z,7.34
2023-04-30T01:05:10.689Z,7.27
2023-04-30T01:06:10.705Z,7.23
2023-04-30T01:07:10.656Z,7.24
2023-04-30T01:08:10.634Z,7.21
2023-04-30T01:09:10.617Z,7.17
2023-04-30T01:10:10.600Z,7.25
2023-04-30T01:11:10.585Z,7.20
2023-04-30T01:12:10.568Z,7.13
2023-04-30T01:13:10.549Z,7.15
2023-04-30T01:14:10.594Z,7.21
2023-04-30T01:15:10.523Z,7.10
2023-04-30T01:16:10.552Z,7.12
2023-04-30T01:17:10.476Z,7.16
2023-04-30T01:18:10.565Z,7.09
2023-04-30T01:19:10.469Z,7.12
2023-04-30T01:20:10.428Z,7.25
2023-04-30T01:21:10.437Z,7.20
2023-04-30T01:22:10.467Z,7.10
2023-04-30T01:23:10.366Z,7.16
2023-04-30T01:24:10.359Z,7.21
2023-04-30T01:25:10.400Z,7.12
2023-04-30T01:26:10.316Z,7.15
2023-04-30T01:27:10.296Z,7.21
2023-04-30T01:28:10.287Z,7.13
2023-04-30T01:29:10.259Z,7.16
2023-04-30T01:30:10.242Z,7.13
2023-04-30T01:31:10.300Z,7.10
2023-04-30T01:32:10.207Z,7.09
2023-04-30T01:33:10.246Z,7.06
2023-04-30T01:34:10.192Z,7.05
2023-04-30T01:35:10.191Z,7.05
2023-04-30T01:36:10.153Z,7.09
2023-04-30T01:37:10.154Z,7.12
2023-04-30T01:38:10.120Z,7.07
2023-04-30T01:39:10.084Z,7.02
2023-04-30T01:40:10.088Z,7.03
2023-04-30T01:41:10.086Z,7.05
2023-04-30T01:42:10.049Z,6.92
2023-04-30T01:43:10.083Z,6.91
2023-04-30T01:44:10.000Z,6.91
2023-04-30T01:45:09.989Z,6.91
2023-04-30T01:46:09.993Z,6.97
2023-04-30T01:47:09.950Z,6.91
2023-04-30T01:48:09.941Z,6.95
2023-04-30T01:49:09.941Z,6.89
2023-04-30T01:50:09.939Z,6.91
2023-04-30T01:51:09.880Z,6.89
2023-04-30T01:52:09.859Z,6.99
2023-04-30T01:53:09.901Z,6.88
2023-04-30T01:54:09.837Z,6.94
2023-04-30T01:55:09.813Z,6.87
2023-04-30T01:56:09.791Z,6.85
2023-04-30T01:57:09.770Z,6.79
2023-04-30T01:58:09.757Z,6.84
2023-04-30T01:59:09.743Z,6.87
2023-04-30T02:00:09.718Z,6.76
2023-04-30T02:01:09.748Z,6.77
2023-04-30T02:02:09.681Z,6.69
2023-04-30T02:03:09.811Z,6.67
2023-04-30T02:04:09.652Z,6.70
2023-04-30T02:05:09.632Z,6.73
2023-04-30T02:06:09.649Z,6.70
2023-04-30T02:07:09.591Z,6.76
2023-04-30T02:08:09.584Z,6.69
2023-04-30T02:09:09.585Z,6.62
2023-04-30T02:10:09.766Z,6.64
2023-04-30T02:11:09.523Z,6.62
2023-04-30T02:12:09.505Z,6.67
2023-04-30T02:13:09.494Z,6.66
2023-04-30T02:14:09.524Z,6.66
2023-04-30T02:15:09.449Z,6.64
2023-04-30T02:16:09.462Z,6.64
2023-04-30T02:17:09.420Z,6.54
2023-04-30T02:18:09.433Z,6.58
2023-04-30T02:19:09.396Z,6.61
2023-04-30T02:20:09.390Z,6.55
2023-04-30T02:21:09.344Z,6.56
2023-04-30T02:22:09.327Z,6.51
2023-04-30T02:23:09.306Z,6.55
2023-04-30T02:24:09.301Z,6.43
2023-04-30T02:25:09.324Z,6.31
2023-04-30T02:26:09.276Z,6.36
2023-04-30T02:27:09.234Z,6.21
2023-04-30T02:28:09.220Z,6.14
2023-04-30T02:29:09.197Z,6.15
2023-04-30T02:30:09.184Z,6.14
2023-04-30T02:31:09.189Z,6.15
2023-04-30T02:32:09.144Z,6.15
2023-04-30T02:33:09.184Z,6.14
2023-04-30T02:34:09.106Z,6.06
2023-04-30T02:35:09.095Z,6.09
2023-04-30T02:36:09.126Z,6.11
2023-04-30T02:37:09.062Z,6.04
2023-04-30T02:38:09.034Z,6.15
2023-04-30T02:39:09.016Z,6.09
2023-04-30T02:40:09.001Z,6.06
2023-04-30T02:41:08.981Z,6.08
2023-04-30T02:42:09.000Z,6.01
2023-04-30T02:43:08.946Z,6.11
2023-04-30T02:44:08.926Z,6.09
2023-04-30T02:45:08.938Z,6.00
2023-04-30T02:46:08.939Z,6.01
2023-04-30T02:47:08.876Z,5.97
2023-04-30T02:48:08.922Z,6.03
2023-04-30T02:49:08.839Z,5.93
2023-04-30T02:50:08.828Z,5.75
2023-04-30T02:51:08.805Z,5.78
2023-04-30T02:52:08.784Z,5.61
2023-04-30T02:53:08.772Z,5.53
2023-04-30T02:54:08.784Z,5.40
2023-04-30T02:55:08.734Z,5.49
2023-04-30T02:56:08.715Z,5.43
2023-04-30T02:57:08.696Z,5.49
2023-04-30T02:58:08.684Z,5.45
2023-04-30T02:59:08.684Z,5.49
2023-04-30T03:00:08.674Z,5.53
2023-04-30T03:01:08.642Z,5.48
2023-04-30T03:02:08.642Z,5.54
2023-04-30T03:03:08.678Z,5.51
2023-04-30T03:04:08.579Z,5.51
2023-04-30T03:05:08.618Z,5.51
2023-04-30T03:06:08.587Z,5.58
2023-04-30T03:07:08.521Z,5.58
2023-04-30T03:08:08.493Z,5.58
2023-04-30T03:09:08.480Z,5.61
2023-04-30T03:10:08.460Z,5.65
2023-04-30T03:11:08.469Z,5.65
2023-04-30T03:12:08.426Z,5.72
2023-04-30T03:13:08.410Z,5.61
2023-04-30T03:14:08.394Z,5.71
2023-04-30T03:15:08.404Z,5.71
2023-04-30T03:16:08.413Z,5.64
2023-04-30T03:17:08.329Z,5.65
2023-04-30T03:18:08.380Z,5.72
2023-04-30T03:19:08.296Z,5.64
2023-04-30T03:20:08.288Z,5.61
2023-04-30T03:21:08.258Z,5.71
2023-04-30T03:22:08.247Z,5.60
2023-04-30T03:23:08.227Z,5.67
2023-04-30T03:24:08.208Z,5.56
2023-04-30T03:25:08.214Z,5.60
2023-04-30T03:26:08.170Z,5.58
2023-04-30T03:27:08.179Z,5.54
2023-04-30T03:28:08.137Z,5.56
2023-04-30T03:29:08.127Z,5.57
2023-04-30T03:30:08.104Z,5.60
2023-04-30T03:31:08.111Z,5.56
2023-04-30T03:32:08.101Z,5.60
2023-04-30T03:33:08.228Z,5.51
2023-04-30T03:34:08.028Z,5.57
2023-04-30T03:35:08.016Z,5.46
2023-04-30T03:36:07.991Z,5.45
2023-04-30T03:37:08.001Z,5.48
2023-04-30T03:38:07.981Z,5.42
2023-04-30T03:39:07.937Z,5.49
2023-04-30T03:40:07.929Z,5.49
2023-04-30T03:41:07.905Z,5.42
2023-04-30T03:42:07.910Z,5.40
2023-04-30T03:43:07.896Z,5.38
2023-04-30T03:44:07.905Z,5.31
2023-04-30T03:45:07.828Z,5.31
2023-04-30T03:46:07.951Z,5.40
2023-04-30T03:47:07.790Z,5.27
2023-04-30T03:48:07.804Z,5.24
2023-04-30T03:49:07.756Z,5.18
2023-04-30T03:50:07.784Z,5.13
2023-04-30T03:51:07.715Z,5.17
2023-04-30T03:52:07.702Z,5.07
2023-04-30T03:53:07.689Z,5.09
2023-04-30T03:54:07.664Z,5.12
2023-04-30T03:55:07.659Z,5.10
2023-04-30T03:56:07.630Z,5.07
2023-04-30T03:57:07.615Z,5.06
2023-04-30T03:58:07.595Z,5.10
2023-04-30T03:59:07.572Z,5.07
2023-04-30T04:00:07.553Z,5.03
2023-04-30T04:01:07.565Z,5.13
2023-04-30T04:02:07.613Z,5.03
2023-04-30T04:03:07.536Z,4.92
2023-04-30T04:04:07.504Z,4.91
2023-04-30T04:05:07.458Z,4.96
2023-04-30T04:06:07.454Z,5.07
2023-04-30T04:07:07.475Z,4.97
2023-04-30T04:08:07.402Z,5.12
2023-04-30T04:09:07.386Z,5.07
2023-04-30T04:10:07.379Z,5.09
2023-04-30T04:11:07.349Z,5.06
2023-04-30T04:12:07.330Z,5.10
2023-04-30T04:13:07.320Z,5.03
2023-04-30T04:14:07.294Z,5.07
2023-04-30T04:15:07.280Z,5.06
2023-04-30T04:16:07.332Z,5.07
2023-04-30T04:17:07.238Z,5.07
2023-04-30T04:18:07.294Z,5.03
2023-04-30T04:19:07.197Z,4.99
2023-04-30T04:20:07.183Z,4.99
2023-04-30T04:21:07.169Z,5.04
2023-04-30T04:22:07.147Z,4.96
2023-04-30T04:23:07.129Z,5.07
2023-04-30T04:24:07.139Z,5.02
2023-04-30T04:25:07.094Z,5.10
2023-04-30T04:26:07.095Z,5.13
2023-04-30T04:27:07.053Z,5.13
2023-04-30T04:28:07.029Z,5.03
2023-04-30T04:29:07.048Z,5.07
2023-04-30T04:30:07.008Z,5.10
2023-04-30T04:31:06.977Z,5.13
2023-04-30T04:32:07.160Z,5.18
2023-04-30T04:33:06.997Z,5.15
2023-04-30T04:34:06.922Z,5.27
2023-04-30T04:35:06.945Z,5.25
2023-04-30T04:36:06.884Z,5.33
2023-04-30T04:37:06.861Z,5.31
2023-04-30T04:38:06.857Z,5.36
2023-04-30T04:39:06.880Z,5.28
2023-04-30T04:40:06.809Z,5.40
2023-04-30T04:41:06.789Z,5.40
2023-04-30T04:42:06.771Z,5.45
2023-04-30T04:43:06.759Z,5.43
2023-04-30T04:44:06.736Z,5.46
2023-04-30T04:45:06.709Z,5.49
2023-04-30T04:46:06.706Z,5.51
2023-04-30T04:47:06.682Z,5.48
2023-04-30T04:48:06.690Z,5.53
2023-04-30T04:49:06.637Z,5.56
2023-04-30T04:50:06.636Z,5.67
2023-04-30T04:51:06.614Z,5.67
2023-04-30T04:52:06.611Z,5.64
2023-04-30T04:53:06.571Z,5.67
2023-04-30T04:54:06.542Z,5.67
2023-04-30T04:55:06.554Z,5.68
2023-04-30T04:56:06.539Z,5.61
2023-04-30T04:57:06.497Z,5.53
2023-04-30T04:58:06.468Z,5.53
2023-04-30T04:59:06.461Z,5.53
2023-04-30T05:00:06.446Z,5.46
2023-04-30T05:01:06.452Z,5.42
2023-04-30T05:02:06.459Z,5.46
2023-04-30T05:03:06.439Z,5.46
2023-04-30T05:04:06.381Z,5.45
2023-04-30T05:05:06.346Z,5.49
2023-04-30T05:06:06.419Z,5.57
2023-04-30T05:07:06.306Z,5.60
2023-04-30T05:08:06.314Z,5.63
2023-04-30T05:09:06.298Z,5.67
2023-04-30T05:10:06.254Z,5.81
2023-04-30T05:11:06.233Z,5.79
2023-04-30T05:12:06.222Z,5.91
2023-04-30T05:13:06.196Z,5.90
2023-04-30T05:14:06.250Z,6.03
2023-04-30T05:15:06.160Z,6.01
2023-04-30T05:16:06.170Z,6.11
2023-04-30T05:17:06.125Z,6.14
2023-04-30T05:18:06.140Z,6.22
2023-04-30T05:19:06.098Z,6.30
2023-04-30T05:20:06.190Z,6.34
2023-04-30T05:21:06.059Z,6.37
2023-04-30T05:22:06.057Z,6.41
2023-04-30T05:23:06.026Z,6.48
2023-04-30T05:24:05.993Z,6.52
2023-04-30T05:25:06.034Z,6.54
2023-04-30T05:26:05.969Z,6.58
2023-04-30T05:27:05.939Z,6.62
2023-04-30T05:28:05.927Z,6.66
2023-04-30T05:29:05.905Z,6.71
2023-04-30T05:30:05.895Z,6.70
2023-04-30T05:31:05.928Z,6.73
2023-04-30T05:32:05.885Z,6.69
2023-04-30T05:33:05.859Z,6.70
2023-04-30T05:34:05.842Z,6.74
2023-04-30T05:35:05.801Z,6.80
2023-04-30T05:36:05.783Z,6.85
2023-04-30T05:37:05.763Z,6.81
2023-04-30T05:38:05.755Z,6.89
2023-04-30T05:39:05.757Z,6.89
2023-04-30T05:40:05.709Z,7.02
2023-04-30T05:41:05.698Z,7.02
2023-04-30T05:42:05.707Z,7.07
2023-04-30T05:43:05.659Z,7.05
2023-04-30T05:44:05.638Z,7.03
2023-04-30T05:45:05.644Z,7.05
2023-04-30T05:46:05.745Z,7.17
2023-04-30T05:47:05.584Z,7.21
2023-04-30T05:48:05.605Z,7.07
2023-04-30T05:49:05.544Z,7.17
2023-04-30T05:50:05.574Z,7.27
2023-04-30T05:51:05.512Z,7.27
2023-04-30T05:52:05.501Z,7.25
2023-04-30T05:53:05.474Z,7.28
2023-04-30T05:54:05.510Z,7.42
2023-04-30T05:55:05.461Z,7.40
2023-04-30T05:56:05.426Z,7.43
2023-04-30T05:57:05.475Z,7.49
2023-04-30T05:58:05.390Z,7.49
2023-04-30T05:59:05.378Z,7.49
2023-04-30T06:00:05.369Z,7.48
2023-04-30T06:01:05.359Z,7.60
2023-04-30T06:02:05.365Z,7.60
2023-04-30T06:03:05.325Z,7.63
2023-04-30T06:04:05.334Z,7.57
2023-04-30T06:05:05.289Z,7.71
2023-04-30T06:06:05.307Z,7.60
2023-04-30T06:07:05.239Z,7.72
2023-04-30T06:08:05.294Z,7.75
2023-04-30T06:09:05.209Z,7.80
2023-04-30T06:10:05.194Z,7.83
2023-04-30T06:11:05.160Z,7.86
2023-04-30T06:12:05.152Z,7.89
2023-04-30T06:13:05.129Z,7.95
2023-04-30T06:14:05.127Z,7.92
2023-04-30T06:15:05.097Z,8.01
2023-04-30T06:16:05.162Z,8.01
2023-04-30T06:17:05.072Z,8.07
2023-04-30T06:18:05.102Z,8.07
2023-04-30T06:19:05.028Z,8.15
2023-04-30T06:20:05.081Z,8.04
2023-04-30T06:21:04.993Z,8.08
2023-04-30T06:22:04.981Z,8.04
2023-04-30T06:23:04.979Z,8.15
2023-04-30T06:24:04.943Z,8.11
2023-04-30T06:25:04.933Z,8.18
2023-04-30T06:26:04.939Z,8.19
2023-04-30T06:27:04.976Z,8.25
2023-04-30T06:28:04.874Z,8.20
2023-04-30T06:29:04.884Z,8.30
2023-04-30T06:30:04.842Z,8.40
2023-04-30T06:31:04.982Z,8.40
2023-04-30T06:32:05.855Z,8.29
2023-04-30T06:33:04.902Z,8.36
2023-04-30T06:34:04.771Z,8.34
2023-04-30T06:35:04.753Z,8.40
2023-04-30T06:36:04.770Z,8.40
2023-04-30T06:37:04.776Z,8.52
2023-04-30T06:38:04.703Z,8.52
2023-04-30T06:39:04.693Z,8.52
2023-04-30T06:40:04.670Z,8.55
2023-04-30T06:41:04.654Z,8.55
2023-04-30T06:42:04.646Z,8.59
2023-04-30T06:43:04.630Z,8.59
2023-04-30T06:44:04.643Z,8.70
2023-04-30T06:45:04.585Z,8.55
2023-04-30T06:46:04.594Z,8.71
2023-04-30T06:47:04.593Z,8.58
2023-04-30T06:48:04.587Z,8.71
2023-04-30T06:49:04.521Z,8.71
2023-04-30T06:50:04.502Z,8.73
2023-04-30T06:51:04.491Z,8.74
2023-04-30T06:52:04.468Z,8.80
2023-04-30T06:53:04.458Z,8.96
2023-04-30T06:54:04.434Z,8.92
2023-04-30T06:55:04.424Z,9.02
2023-04-30T06:56:04.408Z,9.04
2023-04-30T06:57:04.388Z,9.13
2023-04-30T06:58:04.406Z,9.21
2023-04-30T06:59:04.349Z,9.23
2023-04-30T07:00:04.334Z,9.35
2023-04-30T07:01:04.346Z,9.39
2023-04-30T07:02:04.319Z,9.35
2023-04-30T07:03:04.405Z,9.42
2023-04-30T07:04:04.332Z,9.47
2023-04-30T07:05:04.255Z,9.56
2023-04-30T07:06:04.254Z,9.60
2023-04-30T07:07:04.219Z,9.65
2023-04-30T07:08:04.255Z,9.74
2023-04-30T07:09:04.184Z,9.71
2023-04-30T07:10:04.195Z,9.68
2023-04-30T07:11:04.152Z,9.71
2023-04-30T07:12:04.138Z,9.75
2023-04-30T07:13:04.130Z,9.74
2023-04-30T07:14:04.220Z,9.69
2023-04-30T07:15:04.091Z,9.66
2023-04-30T07:16:04.096Z,9.71
2023-04-30T07:17:04.057Z,9.75
2023-04-30T07:18:04.132Z,9.79
2023-04-30T07:19:04.043Z,9.72
2023-04-30T07:20:04.012Z,9.65
2023-04-30T07:21:03.999Z,9.46
2023-04-30T07:22:03.990Z,9.33
2023-04-30T07:23:03.954Z,9.48
2023-04-30T07:24:03.948Z,9.50
2023-04-30T07:25:03.995Z,9.43
2023-04-30T07:26:03.912Z,9.65
2023-04-30T07:27:03.987Z,9.74
2023-04-30T07:28:03.882Z,9.76
2023-04-30T07:29:03.861Z,9.69
2023-04-30T07:30:03.858Z,9.79
2023-04-30T07:31:03.912Z,9.89
2023-04-30T07:32:03.857Z,9.87
2023-04-30T07:33:03.831Z,9.87
2023-04-30T07:34:03.784Z,9.89
2023-04-30T07:35:03.769Z,9.78
2023-04-30T07:36:03.751Z,9.97
2023-04-30T07:37:03.743Z,9.99
2023-04-30T07:38:03.722Z,9.97
2023-04-30T07:39:03.717Z,9.86
2023-04-30T07:40:03.691Z,9.78
2023-04-30T07:41:03.673Z,9.81
2023-04-30T07:42:03.697Z,9.75
2023-04-30T07:43:03.643Z,9.87
2023-04-30T07:44:03.632Z,9.72
2023-04-30T07:45:03.610Z,9.57
2023-04-30T07:46:03.623Z,9.50
2023-04-30T07:47:03.578Z,9.48
2023-04-30T07:48:03.681Z,9.48
2023-04-30T07:49:03.546Z,9.58
2023-04-30T07:50:03.536Z,9.64
2023-04-30T07:51:03.689Z,9.69
2023-04-30T07:52:03.962Z,9.74
2023-04-30T07:53:03.587Z,9.69
2023-04-30T07:54:03.484Z,9.78
2023-04-30T07:55:03.467Z,9.90
2023-04-30T07:56:03.531Z,9.83
2023-04-30T07:57:03.612Z,9.72
2023-04-30T07:58:03.512Z,9.76
2023-04-30T07:59:03.442Z,9.86
2023-04-30T08:00:03.383Z,9.89
2023-04-30T08:01:03.369Z,9.90
2023-04-30T08:02:03.407Z,9.94
2023-04-30T08:03:03.415Z,10.17
2023-04-30T08:04:03.376Z,10.14
2023-04-30T08:05:03.334Z,10.30
2023-04-30T08:06:03.334Z,10.32
2023-04-30T08:07:03.275Z,10.56
2023-04-30T08:08:03.263Z,10.52
2023-04-30T08:09:03.242Z,10.56
2023-04-30T08:10:03.233Z,10.60
2023-04-30T08:11:03.217Z,10.63
2023-04-30T08:12:03.222Z,10.70
2023-04-30T08:13:03.187Z,10.74
2023-04-30T08:14:03.173Z,10.67
2023-04-30T08:15:03.158Z,10.61
2023-04-30T08:16:03.158Z,10.61
2023-04-30T08:17:03.192Z,10.60
2023-04-30T08:18:03.188Z,10.66
2023-04-30T08:19:03.144Z,10.68
2023-04-30T08:20:03.090Z,10.64
2023-04-30T08:21:03.079Z,10.48
2023-04-30T08:22:03.067Z,10.59
2023-04-30T08:23:03.044Z,10.51
2023-04-30T08:24:03.081Z,10.59
2023-04-30T08:25:03.036Z,10.61
2023-04-30T08:26:03.032Z,10.68
2023-04-30T08:27:03.001Z,10.74
2023-04-30T08:28:02.992Z,10.86
2023-04-30T08:29:02.969Z,10.86
2023-04-30T08:30:02.958Z,10.96
2023-04-30T08:31:02.962Z,10.91
2023-04-30T08:32:02.963Z,10.99
2023-04-30T08:33:02.972Z,11.00
2023-04-30T08:34:02.894Z,10.81
2023-04-30T08:35:02.916Z,10.97
2023-04-30T08:36:02.881Z,10.86
2023-04-30T08:37:02.881Z,10.89
2023-04-30T08:38:02.832Z,10.92
2023-04-30T08:39:02.869Z,11.02
2023-04-30T08:40:02.862Z,10.91
2023-04-30T08:41:02.791Z,11.00
2023-04-30T08:42:02.778Z,11.22
2023-04-30T08:43:02.761Z,11.25
2023-04-30T08:44:02.755Z,11.36
2023-04-30T08:45:02.792Z,11.36
2023-04-30T08:46:02.807Z,11.09
2023-04-30T08:47:02.736Z,11.04
2023-04-30T08:48:02.748Z,11.06
2023-04-30T08:49:02.691Z,11.17
2023-04-30T08:50:02.825Z,11.25
2023-04-30T08:51:02.656Z,11.35
2023-04-30T08:52:02.664Z,11.49
2023-04-30T08:53:02.631Z,11.49
2023-04-30T08:54:02.626Z,11.65
2023-04-30T08:55:02.652Z,11.75
2023-04-30T08:56:02.646Z,11.94
2023-04-30T08:57:02.594Z,12.01
2023-04-30T08:58:02.590Z,12.14
2023-04-30T08:59:02.558Z,12.27
2023-04-30T09:00:02.546Z,12.24
2023-04-30T09:01:02.619Z,12.27
2023-04-30T09:02:02.612Z,12.45
2023-04-30T09:03:02.711Z,12.39
2023-04-30T09:04:02.566Z,12.54
2023-04-30T09:05:02.495Z,12.62
2023-04-30T09:06:02.580Z,12.54
2023-04-30T09:07:04.521Z,12.45
2023-04-30T09:08:04.163Z,12.24
2023-04-30T09:09:02.449Z,12.29
2023-04-30T09:10:02.440Z,12.27
2023-04-30T09:11:02.458Z,12.29
2023-04-30T09:12:02.431Z,12.32
2023-04-30T09:13:02.571Z,12.38
2023-04-30T09:14:02.399Z,12.42
2023-04-30T09:15:02.452Z,12.52
2023-04-30T09:16:02.461Z,12.74
2023-04-30T09:17:02.422Z,12.79
2023-04-30T09:18:02.379Z,12.90
2023-04-30T09:19:02.392Z,12.97
2023-04-30T09:20:02.341Z,12.77
2023-04-30T09:21:02.338Z,12.83
2023-04-30T09:22:02.418Z,12.95
2023-04-30T09:23:02.310Z,13.03
2023-04-30T09:24:02.299Z,13.08
2023-04-30T09:25:02.321Z,13.19
2023-04-30T09:26:02.283Z,13.23
2023-04-30T09:27:02.550Z,13.26
2023-04-30T09:28:02.273Z,13.12
2023-04-30T09:29:02.276Z,13.15
2023-04-30T09:30:02.252Z,13.25
2023-04-30T09:31:02.330Z,13.44
2023-04-30T09:32:02.268Z,13.57
2023-04-30T09:33:02.246Z,13.63
2023-04-30T09:34:02.220Z,13.62
2023-04-30T09:35:02.213Z,13.48
2023-04-30T09:36:02.204Z,13.33
2023-04-30T09:37:02.225Z,13.29
2023-04-30T09:38:02.194Z,13.52
2023-04-30T09:39:02.186Z,13.36
2023-04-30T09:40:02.172Z,13.08
2023-04-30T09:41:02.170Z,12.70
2023-04-30T09:42:02.189Z,12.54
2023-04-30T09:43:02.155Z,12.45
2023-04-30T09:44:02.184Z,12.53
2023-04-30T09:45:02.146Z,12.71
2023-04-30T09:46:02.140Z,12.82
2023-04-30T09:47:02.133Z,13.00
2023-04-30T09:48:15.902Z,13.19
2023-04-30T09:49:02.133Z,13.42
2023-04-30T09:50:02.139Z,13.48
2023-04-30T09:51:02.104Z,13.60
2023-04-30T09:52:02.102Z,13.87
2023-04-30T09:53:02.091Z,14.02
2023-04-30T09:54:02.089Z,14.02
2023-04-30T09:55:02.106Z,14.22
2023-04-30T09:56:02.068Z,14.32
2023-04-30T09:57:02.184Z,14.43
2023-04-30T09:58:02.055Z,14.51
2023-04-30T09:59:02.079Z,14.68
2023-04-30T10:00:02.089Z,14.83
2023-04-30T10:01:02.136Z,14.89
2023-04-30T10:02:02.045Z,14.91
2023-04-30T10:03:02.112Z,15.03
2023-04-30T10:04:02.047Z,14.86
2023-04-30T10:05:02.018Z,14.21
2023-04-30T10:06:02.076Z,13.88
2023-04-30T10:07:02.019Z,14.07
2023-04-30T10:08:01.995Z,14.15
2023-04-30T10:09:01.990Z,14.24
2023-04-30T10:10:01.992Z,14.14
2023-04-30T10:11:02.032Z,14.27
2023-04-30T10:12:02.002Z,14.45
2023-04-30T10:13:01.971Z,14.51
2023-04-30T10:14:01.961Z,14.57
2023-04-30T10:15:01.971Z,14.83
2023-04-30T10:16:02.040Z,15.11
2023-04-30T10:17:02.061Z,15.34
2023-04-30T10:18:02.039Z,15.29
2023-04-30T10:19:01.942Z,15.36
2023-04-30T10:20:01.938Z,15.39
2023-04-30T10:21:01.927Z,15.50
2023-04-30T10:22:01.973Z,15.41
2023-04-30T10:23:01.921Z,15.28
2023-04-30T10:24:01.918Z,15.27
2023-04-30T10:25:01.910Z,15.23
2023-04-30T10:26:02.056Z,15.02
2023-04-30T10:27:01.900Z,15.27
2023-04-30T10:28:04.500Z,15.39
2023-04-30T10:29:01.909Z,15.41
2023-04-30T10:30:01.883Z,15.39
2023-04-30T10:31:01.880Z,15.51
2023-04-30T10:32:02.028Z,15.59
2023-04-30T10:33:01.907Z,15.56
2023-04-30T10:34:01.876Z,15.69
2023-04-30T10:35:01.864Z,15.80
2023-04-30T10:36:01.856Z,15.46
2023-04-30T10:37:01.871Z,15.34
2023-04-30T10:38:01.882Z,15.09
2023-04-30T10:39:01.846Z,14.95
2023-04-30T10:40:01.848Z,14.94
2023-04-30T10:41:01.840Z,15.06
2023-04-30T10:42:01.822Z,15.02
2023-04-30T10:43:01.827Z,15.19
2023-04-30T10:44:02.272Z,15.27
2023-04-30T10:45:01.799Z,15.36
2023-04-30T10:46:01.808Z,15.47
2023-04-30T10:47:01.795Z,15.51
2023-04-30T10:48:01.891Z,15.69
2023-04-30T10:49:01.785Z,15.94
2023-04-30T10:50:01.795Z,15.90
2023-04-30T10:51:01.796Z,16.12
2023-04-30T10:52:01.752Z,16.35
2023-04-30T10:53:01.753Z,16.46
2023-04-30T10:54:01.767Z,16.50
2023-04-30T10:55:01.733Z,16.27
2023-04-30T10:56:01.728Z,15.72
2023-04-30T10:57:01.727Z,15.43
2023-04-30T10:58:01.719Z,15.20
2023-04-30T10:59:01.754Z,14.81
2023-04-30T11:00:01.703Z,14.36
2023-04-30T11:01:01.741Z,13.99
2023-04-30T11:02:01.803Z,14.09
2023-04-30T11:03:01.735Z,14.12
2023-04-30T11:04:01.699Z,14.12
2023-04-30T11:05:01.713Z,14.15
2023-04-30T11:06:01.715Z,14.07
2023-04-30T11:07:01.841Z,14.21
2023-04-30T11:08:01.659Z,14.27
2023-04-30T11:09:01.706Z,14.27
2023-04-30T11:10:01.626Z,14.21
2023-04-30T11:11:01.808Z,14.33
2023-04-30T11:12:01.610Z,14.20
2023-04-30T11:13:01.794Z,14.28
2023-04-30T11:14:01.875Z,14.25
2023-04-30T11:15:01.643Z,14.10
2023-04-30T11:16:01.902Z,14.32
2023-04-30T11:17:01.567Z,14.55
2023-04-30T11:18:01.610Z,14.60
2023-04-30T11:19:01.609Z,14.52
2023-04-30T11:20:01.561Z,14.80
2023-04-30T11:21:01.548Z,15.07
2023-04-30T11:22:01.528Z,15.56
2023-04-30T11:23:01.525Z,15.94
2023-04-30T11:24:01.515Z,15.90
2023-04-30T11:25:01.540Z,15.97
2023-04-30T11:26:01.517Z,15.96
2023-04-30T11:27:01.496Z,15.90
2023-04-30T11:28:01.496Z,16.23
2023-04-30T11:29:01.557Z,16.20
2023-04-30T11:30:01.605Z,15.84
2023-04-30T11:31:01.524Z,15.41
2023-04-30T11:32:01.547Z,14.91
2023-04-30T11:33:01.469Z,14.91
2023-04-30T11:34:01.465Z,15.14
2023-04-30T11:35:01.452Z,15.59
2023-04-30T11:36:01.471Z,16.00
2023-04-30T11:37:01.438Z,16.12
2023-04-30T11:38:01.444Z,16.49
2023-04-30T11:39:01.424Z,16.70
2023-04-30T11:40:01.449Z,17.11
2023-04-30T11:41:01.453Z,17.59
2023-04-30T11:42:01.414Z,18.05
2023-04-30T11:43:01.400Z,18.25
2023-04-30T11:44:01.396Z,18.12
2023-04-30T11:45:01.390Z,17.84
2023-04-30T11:46:01.404Z,17.31
2023-04-30T11:47:01.472Z,16.70
2023-04-30T11:48:01.386Z,16.39
2023-04-30T11:49:01.357Z,16.50
2023-04-30T11:50:01.350Z,16.76
2023-04-30T11:51:01.344Z,16.75
2023-04-30T11:52:01.391Z,16.58
2023-04-30T11:53:01.372Z,16.81
2023-04-30T11:54:01.323Z,16.91
2023-04-30T11:55:01.339Z,17.19
2023-04-30T11:56:01.311Z,17.48
2023-04-30T11:57:01.304Z,17.46
2023-04-30T11:58:01.341Z,17.44
2023-04-30T11:59:01.306Z,17.14
2023-04-30T12:00:01.284Z,16.94
2023-04-30T12:01:01.276Z,16.71
2023-04-30T12:02:01.345Z,16.35
2023-04-30T12:03:01.490Z,15.92
2023-04-30T12:04:01.315Z,15.69
2023-04-30T12:05:01.297Z,15.86
2023-04-30T12:06:01.295Z,15.94
2023-04-30T12:07:01.252Z,16.09
2023-04-30T12:08:01.260Z,16.21
2023-04-30T12:09:01.253Z,16.60
2023-04-30T12:10:01.220Z,16.57
2023-04-30T12:11:01.220Z,16.45
2023-04-30T12:12:01.213Z,16.07
2023-04-30T12:13:01.267Z,15.68
2023-04-30T12:14:01.231Z,15.68
2023-04-30T12:15:01.186Z,15.82
2023-04-30T12:16:01.184Z,15.80
2023-04-30T12:17:01.281Z,15.83
2023-04-30T12:18:01.211Z,15.57
2023-04-30T12:19:01.170Z,15.67
2023-04-30T12:20:01.177Z,15.94
2023-04-30T12:21:01.149Z,15.97
2023-04-30T12:22:01.145Z,16.23
2023-04-30T12:23:01.141Z,16.50
2023-04-30T12:24:03.288Z,16.34
2023-04-30T12:25:01.185Z,16.48
2023-04-30T12:26:01.113Z,16.64
2023-04-30T12:27:01.121Z,16.61
2023-04-30T12:28:01.110Z,16.61
2023-04-30T12:29:01.132Z,16.63
2023-04-30T12:30:01.170Z,16.52
2023-04-30T12:31:01.085Z,16.60
2023-04-30T12:32:01.156Z,17.01
2023-04-30T12:33:01.178Z,17.01
2023-04-30T12:34:01.078Z,16.91
2023-04-30T12:35:01.064Z,16.50
2023-04-30T12:36:01.106Z,16.05
2023-04-30T12:37:01.046Z,16.11
2023-04-30T12:38:01.041Z,16.27
2023-04-30T12:39:01.023Z,16.53
2023-04-30T12:40:01.033Z,16.57
2023-04-30T12:41:02.007Z,16.76
2023-04-30T12:42:01.075Z,16.78
2023-04-30T12:43:01.003Z,16.97
2023-04-30T12:44:00.991Z,16.94
2023-04-30T12:45:00.988Z,16.85
2023-04-30T12:46:00.995Z,16.81
2023-04-30T12:47:01.112Z,16.73
2023-04-30T12:48:01.058Z,16.98
2023-04-30T12:49:00.970Z,17.00
2023-04-30T12:50:00.974Z,17.14
2023-04-30T12:51:00.963Z,17.21
2023-04-30T12:52:00.938Z,17.11
2023-04-30T12:53:00.974Z,16.85
2023-04-30T12:54:00.931Z,16.73
2023-04-30T12:55:00.979Z,16.68
2023-04-30T12:56:00.931Z,16.46
2023-04-30T12:57:00.923Z,16.48
2023-04-30T12:58:00.898Z,16.60
2023-04-30T12:59:00.898Z,16.56
2023-04-30T13:00:00.892Z,16.57
2023-04-30T13:01:00.898Z,16.86
2023-04-30T13:02:00.914Z,16.93
2023-04-30T13:03:00.941Z,17.11
2023-04-30T13:04:00.928Z,17.44
2023-04-30T13:05:00.847Z,17.63
2023-04-30T13:06:00.928Z,17.81
2023-04-30T13:07:00.834Z,17.93
2023-04-30T13:08:00.828Z,17.63